KMTJ/MTJ METAR and TAF weather

Enter ICAO airport designator
Station Type Date Time Source
KMTJ METAR 2021/05/15 01:53 UTC NOAA

KMTJ 150153Z AUTO 21010KT 10SM CLR 25/M11 A2994 RMK AO2 SLP062 T02501106


Station Type Date Time Source
KMTJ Decoded METAR 2021/05/15 01:53 UTC NOAA

MONTROSE REGIONAL AIRPORT, CO, United States (KMTJ) 38-30N 107-54W 1750M
May 14, 2021 - 09:53 PM EDT / 2021.05.15 0153 UTC
Wind: from the SSW (210 degrees) at 12 MPH (10 KT):0
Visibility: 10 mile(s):0
Sky conditions: clear
Temperature: 77.0 F (25.0 C)
Dew Point: 12.9 F (-10.6 C)
Relative Humidity: 8%
Pressure (altimeter): 29.94 in. Hg (1013 hPa)
ob: KMTJ 150153Z AUTO 21010KT 10SM CLR 25/M11 A2994 RMK AO2 SLP062 T02501106
cycle: 2

Station Type Date Time Source
KMTJ TAF 2021/05/14 23:28 UTC NOAA

TAF
AMD KMTJ 142326Z 1423/1524 25013G21KT P6SM FEW120 FEW200
FM150200 14007KT P6SM FEW200
FM151500 VRB03KT P6SM FEW250
FM152000 25013G21KT P6SM FEW120 FEW250

Example: see airport list